createdAt,value
2022-09-05T00:01:42.360Z,15.71
2022-09-05T00:04:25.422Z,15.67
2022-09-05T00:07:00.712Z,15.73
2022-09-05T00:09:55.218Z,15.77
2022-09-05T00:12:24.464Z,15.66
2022-09-05T00:15:17.646Z,15.55
2022-09-05T00:22:02.273Z,15.38
2022-09-05T00:24:26.253Z,15.38
2022-09-05T00:24:32.632Z,15.20
2022-09-05T00:27:08.354Z,15.24
2022-09-05T00:31:06.924Z,15.31
2022-09-05T00:33:16.672Z,15.35
2022-09-05T00:35:55.529Z,15.32
2022-09-05T00:38:36.843Z,15.27
2022-09-05T00:41:09.574Z,15.11
2022-09-05T00:43:41.662Z,15.20
2022-09-05T00:46:16.300Z,15.22
2022-09-05T00:48:50.414Z,15.15
2022-09-05T00:51:35.671Z,15.15
2022-09-05T00:54:45.989Z,15.04
2022-09-05T00:57:40.265Z,15.05
2022-09-05T01:04:05.873Z,15.12
2022-09-05T01:06:49.321Z,15.10
2022-09-05T01:09:48.055Z,14.95
2022-09-05T01:12:33.023Z,14.73
2022-09-05T01:15:22.731Z,14.57
2022-09-05T01:18:07.571Z,14.52
2022-09-05T01:20:46.727Z,14.50
2022-09-05T01:23:37.023Z,14.53
2022-09-05T01:26:24.461Z,14.60
2022-09-05T01:29:17.658Z,14.66
2022-09-05T01:31:59.955Z,14.50
2022-09-05T01:34:33.562Z,14.56
2022-09-05T01:37:26.557Z,14.57
2022-09-05T01:40:16.168Z,14.64
2022-09-05T01:43:02.737Z,14.62
2022-09-05T01:45:47.309Z,14.64
2022-09-05T01:48:30.957Z,14.53
2022-09-05T01:51:28.989Z,14.62
2022-09-05T01:54:19.845Z,14.66
2022-09-05T01:57:04.497Z,14.69
2022-09-05T01:59:43.170Z,14.70
2022-09-05T02:02:32.961Z,14.57
2022-09-05T02:05:48.236Z,14.67
2022-09-05T02:08:41.827Z,14.64
2022-09-05T02:11:10.743Z,14.59
2022-09-05T02:13:51.026Z,14.50
2022-09-05T02:16:27.153Z,14.53
2022-09-05T02:19:05.655Z,14.59
2022-09-05T02:21:56.152Z,14.53
2022-09-05T02:24:34.866Z,14.29
2022-09-05T02:27:46.130Z,14.30
2022-09-05T02:30:15.713Z,14.39
2022-09-05T02:32:52.417Z,14.43
2022-09-05T02:35:31.205Z,14.39
2022-09-05T02:40:29.900Z,14.36
2022-09-05T02:45:07.732Z,14.17
2022-09-05T02:45:09.644Z,14.32
2022-09-05T02:46:51.183Z,14.01
2022-09-05T02:53:45.576Z,13.85
2022-09-05T02:55:25.254Z,13.77
2022-09-05T02:57:26.553Z,13.78
2022-09-05T02:59:08.624Z,13.71
2022-09-05T03:01:58.412Z,13.39
2022-09-05T03:04:35.059Z,13.52
2022-09-05T03:07:18.179Z,13.61
2022-09-05T03:10:06.347Z,13.61
2022-09-05T03:13:22.140Z,13.63
2022-09-05T03:16:35.710Z,13.66
2022-09-05T03:19:56.120Z,13.70
2022-09-05T03:23:03.306Z,13.74
2022-09-05T03:26:08.976Z,13.66
2022-09-05T03:29:12.508Z,13.70
2022-09-05T03:31:56.967Z,13.61
2022-09-05T03:34:57.446Z,13.53
2022-09-05T03:37:56.914Z,13.36
2022-09-05T03:40:50.451Z,13.33
2022-09-05T03:43:54.992Z,13.42
2022-09-05T03:46:36.310Z,13.53
2022-09-05T03:51:56.847Z,13.59
2022-09-05T03:57:13.296Z,13.67
2022-09-05T03:57:13.877Z,13.60
2022-09-05T03:59:10.446Z,13.61
2022-09-05T04:06:40.901Z,13.46
2022-09-05T04:08:14.568Z,13.57
2022-09-05T04:08:18.449Z,13.59
2022-09-05T04:10:30.334Z,13.44
2022-09-05T04:13:05.044Z,13.38
2022-09-05T04:15:44.720Z,13.16
2022-09-05T04:18:28.490Z,13.16
2022-09-05T04:21:08.142Z,13.08
2022-09-05T04:23:48.059Z,12.88
2022-09-05T04:26:35.657Z,12.67
2022-09-05T04:29:15.159Z,12.54
2022-09-05T04:32:18.369Z,12.47
2022-09-05T04:34:57.667Z,12.53
2022-09-05T04:37:48.969Z,12.60
2022-09-05T04:40:50.201Z,12.58
2022-09-05T04:43:31.142Z,12.60
2022-09-05T04:46:09.303Z,12.67
2022-09-05T04:48:46.172Z,12.84
2022-09-05T04:51:38.150Z,12.89
2022-09-05T04:54:29.995Z,13.04
2022-09-05T04:57:14.390Z,13.11
2022-09-05T05:06:00.031Z,13.23
2022-09-05T05:06:15.489Z,13.27
2022-09-05T05:06:31.814Z,13.22
2022-09-05T05:08:52.270Z,13.36
2022-09-05T05:17:10.936Z,13.53
2022-09-05T05:17:58.283Z,13.59
2022-09-05T05:18:11.157Z,13.60
2022-09-05T05:20:42.881Z,13.63
2022-09-05T05:23:06.588Z,13.94
2022-09-05T05:25:47.056Z,14.24
2022-09-05T05:28:24.811Z,14.05
2022-09-05T05:31:01.358Z,14.22
2022-09-05T05:33:33.895Z,14.25
2022-09-05T05:36:05.554Z,14.29
2022-09-05T05:38:43.464Z,14.35
2022-09-05T05:41:18.598Z,14.45
2022-09-05T05:43:47.585Z,14.60
2022-09-05T05:46:26.108Z,14.77
2022-09-05T05:49:04.833Z,14.90
2022-09-05T05:52:01.842Z,14.93
2022-09-05T05:54:39.227Z,15.11
2022-09-05T05:57:35.162Z,15.32
2022-09-05T06:00:14.886Z,15.65
2022-09-05T06:03:26.198Z,15.76
2022-09-05T06:06:09.202Z,15.82
2022-09-05T06:13:08.985Z,15.93
2022-09-05T06:14:59.312Z,16.04
2022-09-05T06:15:26.912Z,16.15
2022-09-05T06:18:24.307Z,16.34
2022-09-05T06:22:11.118Z,16.48
2022-09-05T06:24:42.632Z,16.72
2022-09-05T06:28:04.690Z,16.79
2022-09-05T06:30:26.769Z,16.97
2022-09-05T06:33:14.660Z,17.09
2022-09-05T06:36:01.242Z,17.14
2022-09-05T06:38:53.124Z,17.24
2022-09-05T06:41:31.731Z,17.47
2022-09-05T06:44:28.248Z,17.64
2022-09-05T06:47:22.612Z,17.71
2022-09-05T06:50:26.780Z,17.87
2022-09-05T06:53:39.593Z,17.93
2022-09-05T06:56:25.462Z,18.10
2022-09-05T06:59:34.381Z,18.20
2022-09-05T07:02:08.681Z,18.31
2022-09-05T07:05:23.683Z,18.52
2022-09-05T07:07:42.408Z,18.79
2022-09-05T07:10:37.829Z,18.88
2022-09-05T07:13:15.303Z,18.92
2022-09-05T07:15:53.538Z,19.00
2022-09-05T07:18:28.928Z,19.15
2022-09-05T07:21:16.872Z,19.23
2022-09-05T07:24:09.183Z,19.41
2022-09-05T07:26:51.795Z,19.53
2022-09-05T07:29:27.724Z,19.79
2022-09-05T07:31:57.150Z,19.91
2022-09-05T07:34:30.326Z,19.96
2022-09-05T07:37:14.663Z,20.02
2022-09-05T07:39:49.823Z,20.09
2022-09-05T07:42:26.024Z,20.33
2022-09-05T07:44:57.960Z,20.51
2022-09-05T07:47:30.236Z,20.67
2022-09-05T07:54:00.569Z,20.77
2022-09-05T07:56:50.586Z,20.91
2022-09-05T07:57:06.015Z,20.85
2022-09-05T07:58:41.505Z,20.91
2022-09-05T08:01:12.949Z,21.18
2022-09-05T08:03:42.378Z,21.32
2022-09-05T08:06:18.418Z,21.50
2022-09-05T08:09:21.922Z,21.77
2022-09-05T08:12:09.589Z,21.87
2022-09-05T08:14:46.110Z,22.02
2022-09-05T08:17:19.079Z,22.08
2022-09-05T08:20:17.144Z,22.07
2022-09-05T08:22:57.681Z,22.05
2022-09-05T08:25:37.625Z,22.25
2022-09-05T08:28:25.302Z,22.41
2022-09-05T08:31:11.320Z,22.51
2022-09-05T08:33:40.425Z,22.62
2022-09-05T08:36:12.911Z,22.82
2022-09-05T08:38:43.900Z,23.01
2022-09-05T08:41:18.827Z,23.01
2022-09-05T08:46:39.338Z,23.07
2022-09-05T08:46:56.212Z,23.38
2022-09-05T08:49:44.070Z,23.32
2022-09-05T08:52:20.513Z,23.47
2022-09-05T08:55:06.591Z,23.48
2022-09-05T08:58:05.955Z,23.61
2022-09-05T09:00:44.424Z,23.69
2022-09-05T09:03:27.526Z,23.92
2022-09-05T09:06:17.179Z,23.97
2022-09-05T09:08:56.631Z,23.93
2022-09-05T09:11:31.836Z,24.24
2022-09-05T09:14:14.925Z,24.40
2022-09-05T09:17:06.949Z,24.50
2022-09-05T09:19:47.974Z,24.72
2022-09-05T09:22:23.537Z,24.76
2022-09-05T09:25:14.571Z,24.48
2022-09-05T09:28:48.344Z,24.43
2022-09-05T09:31:00.472Z,23.92
2022-09-05T09:33:38.332Z,24.38
2022-09-05T09:36:22.752Z,24.44
2022-09-05T09:39:21.129Z,24.60
2022-09-05T09:42:33.202Z,24.61
2022-09-05T09:45:41.440Z,24.68
2022-09-05T09:48:44.825Z,24.20
2022-09-05T09:51:52.967Z,24.52
2022-09-05T09:54:59.829Z,24.38
2022-09-05T09:58:08.124Z,24.69
2022-09-05T10:00:51.393Z,25.12
2022-09-05T10:10:32.906Z,25.15
2022-09-05T10:10:53.065Z,24.73
2022-09-05T10:11:08.800Z,24.82
2022-09-05T10:13:25.941Z,24.83
2022-09-05T10:16:33.378Z,24.98
2022-09-05T10:22:41.638Z,24.89
2022-09-05T10:25:28.965Z,24.98
2022-09-05T10:28:06.090Z,25.13
2022-09-05T10:31:10.010Z,25.48
2022-09-05T10:35:17.245Z,25.30
2022-09-05T10:36:29.885Z,25.31
2022-09-05T10:39:13.584Z,25.24
2022-09-05T10:41:50.101Z,25.06
2022-09-05T10:44:28.366Z,25.09
2022-09-05T10:47:08.038Z,25.58
2022-09-05T10:49:44.295Z,25.84
2022-09-05T10:52:18.666Z,26.23
2022-09-05T10:55:18.451Z,25.96
2022-09-05T10:57:59.782Z,26.13
2022-09-05T11:02:24.704Z,26.28
2022-09-05T11:03:46.823Z,26.51
2022-09-05T11:06:24.718Z,26.16
2022-09-05T11:09:03.121Z,26.51
2022-09-05T11:11:41.372Z,26.61
2022-09-05T11:14:29.774Z,26.77
2022-09-05T11:17:10.052Z,26.60
2022-09-05T11:19:43.952Z,26.56
2022-09-05T11:22:23.041Z,26.41
2022-09-05T11:24:56.222Z,26.54
2022-09-05T11:27:32.878Z,26.64
2022-09-05T11:30:06.906Z,26.54
2022-09-05T11:39:46.222Z,26.50
2022-09-05T11:40:02.119Z,26.47
2022-09-05T11:40:09.885Z,26.61
2022-09-05T11:42:15.050Z,26.92
2022-09-05T11:44:58.595Z,26.80
2022-09-05T11:48:11.452Z,27.15
2022-09-05T11:51:03.446Z,27.50
2022-09-05T11:53:57.431Z,27.59
2022-09-05T11:57:32.487Z,27.18
2022-09-05T12:00:33.727Z,27.19
2022-09-05T12:03:57.274Z,27.52
2022-09-05T12:06:48.260Z,27.04
2022-09-05T12:09:29.710Z,27.01
2022-09-05T12:12:34.144Z,27.21
2022-09-05T12:15:12.077Z,27.28
2022-09-05T12:17:51.640Z,27.26
2022-09-05T12:20:27.462Z,26.87
2022-09-05T12:23:02.530Z,26.88
2022-09-05T12:27:39.155Z,27.29
2022-09-05T12:29:27.700Z,27.12
2022-09-05T12:32:30.470Z,27.21
2022-09-05T12:36:08.054Z,26.94
2022-09-05T12:40:56.189Z,26.77
2022-09-05T12:41:35.133Z,26.98
2022-09-05T12:44:40.226Z,27.32
2022-09-05T12:45:58.213Z,27.32
2022-09-05T12:48:38.935Z,27.38
2022-09-05T12:51:11.248Z,27.49
2022-09-05T12:53:48.245Z,27.63
2022-09-05T13:00:52.525Z,27.83
2022-09-05T13:02:58.069Z,27.76
2022-09-05T13:03:10.868Z,27.89
2022-09-05T13:05:14.154Z,28.01
2022-09-05T13:07:47.114Z,28.08
2022-09-05T13:11:24.130Z,27.87
2022-09-05T13:14:56.826Z,27.89
2022-09-05T13:16:03.564Z,27.77
2022-09-05T13:18:39.334Z,27.80
2022-09-05T13:21:11.700Z,28.00
2022-09-05T13:23:42.808Z,28.19
2022-09-05T13:26:16.162Z,28.08
2022-09-05T13:28:51.290Z,28.09
2022-09-05T13:38:08.026Z,28.12
2022-09-05T13:38:14.750Z,28.17
2022-09-05T13:38:21.159Z,28.11
2022-09-05T13:40:41.202Z,28.51
2022-09-05T13:43:13.499Z,28.67
2022-09-05T13:46:11.131Z,28.44
2022-09-05T13:51:44.407Z,28.84
2022-09-05T13:54:34.161Z,29.01
2022-09-05T13:57:32.531Z,28.11
2022-09-05T14:00:28.297Z,28.59
2022-09-05T14:03:40.862Z,28.45
2022-09-05T14:06:45.452Z,28.70
2022-09-05T14:09:36.670Z,28.56
2022-09-05T14:12:12.713Z,28.84
2022-09-05T14:17:54.695Z,28.89
2022-09-05T14:20:49.457Z,28.73
2022-09-05T14:23:20.126Z,28.42
2022-09-05T14:25:54.086Z,28.63
2022-09-05T14:28:28.228Z,28.67
2022-09-05T14:35:16.396Z,28.49
2022-09-05T14:37:40.628Z,28.66
2022-09-05T14:37:41.558Z,28.21
2022-09-05T14:40:29.482Z,28.07
2022-09-05T14:43:30.949Z,28.46
2022-09-05T14:46:28.393Z,28.56
2022-09-05T14:49:19.403Z,28.49
2022-09-05T14:51:48.907Z,28.38
2022-09-05T15:00:58.317Z,28.46
2022-09-05T15:02:43.047Z,27.74
2022-09-05T15:03:05.592Z,28.07
2022-09-05T15:05:50.364Z,28.09
2022-09-05T15:09:53.668Z,28.28
2022-09-05T15:12:15.564Z,27.94
2022-09-05T15:14:07.228Z,27.86
2022-09-05T15:16:43.814Z,27.96
2022-09-05T15:19:13.953Z,28.28
2022-09-05T15:21:42.153Z,28.01
2022-09-05T15:24:18.128Z,27.91
2022-09-05T15:26:53.156Z,27.84
2022-09-05T15:29:25.124Z,28.11
2022-09-05T15:32:12.282Z,28.01
2022-09-05T15:34:40.843Z,28.24
2022-09-05T15:37:29.169Z,28.09
2022-09-05T15:40:07.640Z,28.01
2022-09-05T15:42:55.309Z,28.12
2022-09-05T15:45:26.898Z,28.05
2022-09-05T15:48:16.487Z,28.00
2022-09-05T15:50:51.425Z,28.08
2022-09-05T15:53:25.659Z,27.84
2022-09-05T15:56:00.129Z,28.25
2022-09-05T15:58:52.419Z,28.46
2022-09-05T16:01:32.621Z,28.07
2022-09-05T16:08:49.389Z,28.18
2022-09-05T16:10:29.369Z,28.12
2022-09-05T16:10:37.856Z,27.96
2022-09-05T16:12:45.782Z,27.93
2022-09-05T16:16:29.889Z,28.08
2022-09-05T16:23:15.606Z,28.05
2022-09-05T16:23:23.594Z,27.91
2022-09-05T16:24:04.171Z,27.91
2022-09-05T16:26:40.538Z,27.94
2022-09-05T16:29:14.182Z,27.98
2022-09-05T16:31:49.777Z,28.05
2022-09-05T16:34:25.434Z,28.09
2022-09-05T16:37:08.372Z,28.05
2022-09-05T16:39:45.390Z,27.89
2022-09-05T16:42:18.835Z,27.90
2022-09-05T16:44:51.295Z,27.87
2022-09-05T16:47:25.886Z,27.76
2022-09-05T16:50:03.232Z,27.70
2022-09-05T16:52:39.945Z,27.49
2022-09-05T16:55:29.658Z,27.26
2022-09-05T16:58:03.415Z,26.68
2022-09-05T17:01:17.050Z,26.13
2022-09-05T17:03:54.554Z,25.64
2022-09-05T17:06:32.147Z,25.74
2022-09-05T17:09:13.339Z,25.74
2022-09-05T17:11:55.975Z,24.40
2022-09-05T17:14:34.854Z,24.95
2022-09-05T17:17:19.745Z,24.17
2022-09-05T17:20:10.821Z,24.12
2022-09-05T17:25:50.398Z,24.45
2022-09-05T17:29:23.471Z,23.55
2022-09-05T17:29:30.088Z,23.99
2022-09-05T17:31:53.601Z,23.30
2022-09-05T17:35:16.876Z,23.49
2022-09-05T17:38:34.459Z,22.83
2022-09-05T17:41:35.253Z,22.57
2022-09-05T17:44:18.553Z,22.14
2022-09-05T17:47:01.361Z,22.19
2022-09-05T17:49:45.232Z,22.32
2022-09-05T17:52:23.891Z,22.17
2022-09-05T17:54:56.582Z,21.74
2022-09-05T17:57:42.229Z,21.36
2022-09-05T18:00:45.693Z,21.79
2022-09-05T18:04:17.128Z,22.14
2022-09-05T18:06:59.579Z,22.52
2022-09-05T18:13:31.319Z,22.36
2022-09-05T18:16:10.730Z,22.41
2022-09-05T18:19:28.517Z,22.25
2022-09-05T18:21:50.371Z,22.02
2022-09-05T18:24:33.456Z,21.43
2022-09-05T18:28:03.611Z,21.28
2022-09-05T18:30:29.922Z,21.29
2022-09-05T18:33:56.151Z,21.31
2022-09-05T18:36:42.956Z,21.69
2022-09-05T18:39:42.216Z,21.60
2022-09-05T18:42:26.517Z,21.12
2022-09-05T18:45:15.188Z,20.95
2022-09-05T18:47:51.297Z,21.32
2022-09-05T18:50:32.297Z,21.52
2022-09-05T18:53:10.743Z,21.63
2022-09-05T18:56:13.225Z,21.53
2022-09-05T18:58:53.098Z,21.38
2022-09-05T19:01:35.977Z,21.28
2022-09-05T19:04:08.989Z,21.11
2022-09-05T19:06:59.530Z,21.05
2022-09-05T19:09:40.226Z,21.09
2022-09-05T19:12:35.155Z,21.14
2022-09-05T19:15:13.676Z,20.88
2022-09-05T19:17:47.347Z,20.58
2022-09-05T19:20:32.837Z,20.15
2022-09-05T19:23:11.786Z,20.08
2022-09-05T19:25:44.723Z,20.29
2022-09-05T19:36:50.635Z,20.20
2022-09-05T19:37:05.615Z,20.06
2022-09-05T19:37:15.102Z,19.99
2022-09-05T19:37:30.148Z,20.02
2022-09-05T19:42:43.529Z,19.99
2022-09-05T19:47:26.820Z,19.74
2022-09-05T19:47:41.867Z,19.63
2022-09-05T19:48:26.407Z,19.40
2022-09-05T19:50:56.268Z,19.34
2022-09-05T19:53:25.322Z,19.12
2022-09-05T19:55:54.896Z,19.20
2022-09-05T19:58:25.746Z,18.95
2022-09-05T20:01:08.402Z,18.92
2022-09-05T20:03:43.354Z,18.91
2022-09-05T20:06:28.718Z,18.99
2022-09-05T20:09:10.678Z,18.88
2022-09-05T20:11:46.184Z,19.15
2022-09-05T20:14:25.225Z,18.95
2022-09-05T20:16:56.023Z,19.16
2022-09-05T20:19:30.370Z,19.23
2022-09-05T20:22:18.743Z,19.16
2022-09-05T20:24:51.955Z,18.68
2022-09-05T20:27:27.120Z,18.84
2022-09-05T20:29:59.847Z,19.06
2022-09-05T20:32:39.839Z,19.02
2022-09-05T20:40:17.945Z,19.03
2022-09-05T20:43:18.926Z,18.95
2022-09-05T20:43:20.298Z,19.13
2022-09-05T20:43:52.684Z,19.16
2022-09-05T20:53:09.719Z,19.23
2022-09-05T20:54:10.689Z,19.17
2022-09-05T20:54:18.415Z,19.07
2022-09-05T20:55:38.844Z,19.00
2022-09-05T20:57:50.890Z,18.64
2022-09-05T21:00:23.089Z,18.54
2022-09-05T21:02:56.074Z,18.36
2022-09-05T21:05:28.560Z,18.44
2022-09-05T21:08:24.517Z,18.44
2022-09-05T21:10:55.646Z,18.52
2022-09-05T21:13:26.562Z,18.57
2022-09-05T21:15:55.526Z,18.33
2022-09-05T21:18:33.079Z,18.43
2022-09-05T21:21:28.790Z,17.95
2022-09-05T21:24:17.567Z,18.33
2022-09-05T21:26:48.425Z,18.20
2022-09-05T21:29:18.294Z,17.89
2022-09-05T21:31:54.591Z,18.12
2022-09-05T21:34:29.043Z,18.26
2022-09-05T21:37:06.713Z,17.86
2022-09-05T21:39:42.880Z,17.64
2022-09-05T21:43:40.855Z,18.04
2022-09-05T21:47:50.092Z,17.81
2022-09-05T21:48:04.950Z,17.90
2022-09-05T21:50:40.338Z,18.00
2022-09-05T21:54:35.199Z,18.13
2022-09-05T21:59:19.320Z,18.37
2022-09-05T21:59:32.964Z,18.33
2022-09-05T22:01:54.278Z,18.51
2022-09-05T22:04:22.896Z,18.37
2022-09-05T22:06:54.313Z,18.43
2022-09-05T22:09:23.684Z,18.02
2022-09-05T22:11:52.693Z,18.06
2022-09-05T22:14:22.285Z,17.81
2022-09-05T22:16:53.123Z,17.66
2022-09-05T22:19:37.146Z,17.76
2022-09-05T22:22:16.521Z,17.79
2022-09-05T22:24:55.074Z,17.82
2022-09-05T22:27:26.342Z,18.03
2022-09-05T22:29:56.678Z,17.96
2022-09-05T22:32:34.350Z,18.00
2022-09-05T22:35:27.010Z,18.02
2022-09-05T22:38:00.553Z,18.06
2022-09-05T22:40:29.923Z,18.13
2022-09-05T22:42:58.588Z,18.29
2022-09-05T22:45:27.338Z,18.06
2022-09-05T22:47:55.723Z,18.17
2022-09-05T22:50:24.312Z,18.27
2022-09-05T22:52:52.482Z,18.10
2022-09-05T22:55:21.872Z,17.96
2022-09-05T22:57:49.959Z,17.93
2022-09-05T23:00:18.354Z,18.09
2022-09-05T23:02:51.673Z,18.22
2022-09-05T23:05:20.633Z,18.23
2022-09-05T23:07:48.716Z,18.29
2022-09-05T23:10:17.651Z,18.37
2022-09-05T23:12:47.221Z,18.43
2022-09-05T23:15:15.854Z,18.29
2022-09-05T23:17:43.935Z,18.47
2022-09-05T23:20:12.511Z,18.48
2022-09-05T23:22:40.592Z,18.47
2022-09-05T23:25:09.814Z,18.22
2022-09-05T23:27:38.201Z,18.12
2022-09-05T23:30:09.615Z,18.07
2022-09-05T23:32:37.679Z,18.10
2022-09-05T23:35:06.426Z,18.14
2022-09-05T23:37:34.512Z,17.83
2022-09-05T23:40:02.715Z,17.72
2022-09-05T23:42:30.811Z,17.81
2022-09-05T23:44:58.907Z,18.02
2022-09-05T23:47:29.698Z,17.75
2022-09-05T23:49:58.077Z,17.64
2022-09-05T23:52:26.124Z,17.79
2022-09-05T23:54:54.147Z,17.86
2022-09-05T23:57:23.576Z,17.92
2022-09-05T23:59:52.630Z,17.72
